createdAt,value
2018-10-02T00:01:38.661Z,6.10
2018-10-02T00:04:07.646Z,6.00
2018-10-02T00:06:36.747Z,6.10
2018-10-02T00:09:08.315Z,6.00
2018-10-02T00:11:42.305Z,6.10
2018-10-02T00:14:19.219Z,6.20
2018-10-02T00:16:48.077Z,6.20
2018-10-02T00:19:17.563Z,6.10
2018-10-02T00:21:46.389Z,6.20
2018-10-02T00:24:15.261Z,6.20
2018-10-02T00:26:44.153Z,6.20
2018-10-02T00:29:13.000Z,6.10
2018-10-02T00:31:41.893Z,6.20
2018-10-02T00:34:11.195Z,6.10
2018-10-02T00:36:40.223Z,6.20
2018-10-02T00:39:09.374Z,6.10
2018-10-02T00:41:38.226Z,6.10
2018-10-02T00:44:07.114Z,6.20
2018-10-02T00:46:35.954Z,6.20
2018-10-02T00:49:04.928Z,6.20
2018-10-02T00:51:33.796Z,6.20
2018-10-02T00:54:02.605Z,6.30
2018-10-02T00:56:31.386Z,6.30
2018-10-02T00:59:01.275Z,6.30
2018-10-02T01:01:31.546Z,6.40
2018-10-02T01:04:00.648Z,6.30
2018-10-02T01:06:30.513Z,6.30
2018-10-02T01:09:00.046Z,6.20
2018-10-02T01:11:28.879Z,6.20
2018-10-02T01:13:57.784Z,6.20
2018-10-02T01:16:26.609Z,6.10
2018-10-02T01:18:55.431Z,6.10
2018-10-02T01:21:24.238Z,6.00
2018-10-02T01:23:53.099Z,6.00
2018-10-02T01:26:22.300Z,6.00
2018-10-02T01:28:51.437Z,6.00
2018-10-02T01:31:21.293Z,6.00
2018-10-02T01:33:50.092Z,5.90
2018-10-02T01:36:18.877Z,5.90
2018-10-02T01:38:47.690Z,5.80
2018-10-02T01:41:17.509Z,5.80
2018-10-02T01:43:46.418Z,5.80
2018-10-02T01:46:15.396Z,5.80
2018-10-02T01:48:44.302Z,5.80
2018-10-02T01:51:13.285Z,5.70
2018-10-02T01:53:42.112Z,5.60
2018-10-02T01:56:11.584Z,5.60
2018-10-02T01:58:40.428Z,5.50
2018-10-02T02:01:09.321Z,5.50
2018-10-02T02:03:38.182Z,5.50
2018-10-02T02:06:07.104Z,5.50
2018-10-02T02:08:35.893Z,5.50
2018-10-02T02:11:04.750Z,5.50
2018-10-02T02:13:33.770Z,5.50
2018-10-02T02:16:02.633Z,5.40
2018-10-02T02:18:32.130Z,5.40
2018-10-02T02:21:01.017Z,5.40
2018-10-02T02:23:30.058Z,5.30
2018-10-02T02:25:58.900Z,5.30
2018-10-02T02:28:27.829Z,5.30
2018-10-02T02:30:56.707Z,5.30
2018-10-02T02:33:25.595Z,5.20
2018-10-02T02:35:55.209Z,5.10
2018-10-02T02:38:24.075Z,5.00
2018-10-02T02:40:53.478Z,5.00
2018-10-02T02:43:22.322Z,5.00
2018-10-02T02:45:51.440Z,4.90
2018-10-02T02:48:25.580Z,4.90
2018-10-02T02:51:01.329Z,4.90
2018-10-02T02:53:31.692Z,4.90
2018-10-02T02:56:00.506Z,4.90
2018-10-02T02:58:29.328Z,4.90
2018-10-02T03:00:58.541Z,5.00
2018-10-02T03:03:27.393Z,4.90
2018-10-02T03:05:56.309Z,4.90
2018-10-02T03:08:25.253Z,5.00
2018-10-02T03:10:54.126Z,5.00
2018-10-02T03:13:23.018Z,4.90
2018-10-02T03:15:51.983Z,4.90
2018-10-02T03:18:21.038Z,4.90
2018-10-02T03:20:50.067Z,4.90
2018-10-02T03:23:18.949Z,4.90
2018-10-02T03:25:48.580Z,4.90
2018-10-02T03:28:17.424Z,4.90
2018-10-02T03:30:46.317Z,4.90
2018-10-02T03:33:19.118Z,5.00
2018-10-02T03:35:48.127Z,4.90
2018-10-02T03:38:16.965Z,4.80
2018-10-02T03:40:45.788Z,4.80
2018-10-02T03:43:14.623Z,4.80
2018-10-02T03:45:43.485Z,4.80
2018-10-02T03:48:12.334Z,4.70
2018-10-02T03:50:41.187Z,4.70
2018-10-02T03:53:10.576Z,4.70
2018-10-02T03:55:39.439Z,4.70
2018-10-02T03:58:08.298Z,4.80
2018-10-02T04:00:38.130Z,4.80
2018-10-02T04:03:07.160Z,4.70
2018-10-02T04:05:35.995Z,4.60
2018-10-02T04:08:04.854Z,4.70
2018-10-02T04:10:34.452Z,4.70
2018-10-02T04:13:03.579Z,4.70
2018-10-02T04:15:32.646Z,4.70
2018-10-02T04:18:01.718Z,4.70
2018-10-02T04:20:31.667Z,4.70
2018-10-02T04:23:00.803Z,4.70
2018-10-02T04:25:29.665Z,4.70
2018-10-02T04:27:58.594Z,4.70
2018-10-02T04:30:27.518Z,4.70
2018-10-02T04:32:56.308Z,4.70
2018-10-02T04:35:25.183Z,4.60
2018-10-02T04:37:54.157Z,4.70
2018-10-02T04:40:23.006Z,4.60
2018-10-02T04:42:52.738Z,4.60
2018-10-02T04:45:21.716Z,4.50
2018-10-02T04:47:58.157Z,4.50
2018-10-02T04:50:27.000Z,4.50
2018-10-02T04:52:56.143Z,4.40
2018-10-02T04:55:26.327Z,4.40
2018-10-02T04:57:55.277Z,4.50
2018-10-02T05:00:24.386Z,4.50
2018-10-02T05:02:53.450Z,4.50
2018-10-02T05:05:23.135Z,4.50
2018-10-02T05:07:52.385Z,4.50
2018-10-02T05:10:21.408Z,4.50
2018-10-02T05:12:50.238Z,4.50
2018-10-02T05:15:21.039Z,4.50
2018-10-02T05:17:50.171Z,4.40
2018-10-02T05:20:19.329Z,4.40
2018-10-02T05:22:48.176Z,4.40
2018-10-02T05:25:17.150Z,4.40
2018-10-02T05:27:46.466Z,4.40
2018-10-02T05:30:15.303Z,4.40
2018-10-02T05:32:44.973Z,4.40
2018-10-02T05:35:13.951Z,4.40
2018-10-02T05:37:44.208Z,4.50
2018-10-02T05:40:13.993Z,4.40
2018-10-02T05:42:43.304Z,4.50
2018-10-02T05:45:19.610Z,4.50
2018-10-02T05:47:49.659Z,4.50
2018-10-02T05:50:18.536Z,4.50
2018-10-02T05:52:48.433Z,4.50
2018-10-02T05:55:17.907Z,4.50
2018-10-02T05:57:46.878Z,4.50
2018-10-02T06:00:15.778Z,4.60
2018-10-02T06:02:44.754Z,4.60
2018-10-02T06:05:13.607Z,4.60
2018-10-02T06:07:44.163Z,4.60
2018-10-02T06:10:13.394Z,4.60
2018-10-02T06:12:44.780Z,4.60
2018-10-02T06:15:13.962Z,4.60
2018-10-02T06:17:43.670Z,4.50
2018-10-02T06:20:13.648Z,4.50
2018-10-02T06:22:42.470Z,4.60
2018-10-02T06:25:11.438Z,4.70
2018-10-02T06:27:41.150Z,4.60
2018-10-02T06:30:10.179Z,4.60
2018-10-02T06:32:39.305Z,4.70
2018-10-02T06:35:08.632Z,4.70
2018-10-02T06:37:38.943Z,4.70
2018-10-02T06:40:08.669Z,4.70
2018-10-02T06:42:38.158Z,4.80
2018-10-02T06:45:08.553Z,4.80
2018-10-02T06:47:37.516Z,4.90
2018-10-02T06:50:06.530Z,4.90
2018-10-02T06:52:35.795Z,4.80
2018-10-02T06:55:04.656Z,4.90
2018-10-02T06:57:33.654Z,4.80
2018-10-02T07:00:09.240Z,4.90
2018-10-02T07:02:40.042Z,4.90
2018-10-02T07:05:09.066Z,4.80
2018-10-02T07:07:38.470Z,4.90
2018-10-02T07:10:09.146Z,4.80
2018-10-02T07:12:38.239Z,4.80
2018-10-02T07:15:07.265Z,4.80
2018-10-02T07:17:36.775Z,4.70
2018-10-02T07:20:06.616Z,4.70
2018-10-02T07:22:36.136Z,4.60
2018-10-02T07:25:05.777Z,4.60
2018-10-02T07:27:35.283Z,4.60
2018-10-02T07:30:04.742Z,4.60
2018-10-02T07:32:34.158Z,4.70
2018-10-02T07:35:04.320Z,4.70
2018-10-02T07:37:34.415Z,4.70
2018-10-02T07:40:03.879Z,4.80
2018-10-02T07:42:33.604Z,4.80
2018-10-02T07:45:05.592Z,4.80
2018-10-02T07:47:36.316Z,4.80
2018-10-02T07:50:12.061Z,4.80
2018-10-02T07:52:41.287Z,4.80
2018-10-02T07:55:10.481Z,4.90
2018-10-02T07:57:40.631Z,4.90
2018-10-02T08:00:11.239Z,5.00
2018-10-02T08:02:43.773Z,5.00
2018-10-02T08:05:13.219Z,5.10
2018-10-02T08:07:44.972Z,5.10
2018-10-02T08:10:17.147Z,5.10
2018-10-02T08:12:46.284Z,5.10
2018-10-02T08:15:23.165Z,5.10
2018-10-02T08:17:52.241Z,5.10
2018-10-02T08:20:23.145Z,5.20
2018-10-02T08:22:53.216Z,5.20
2018-10-02T08:25:22.135Z,5.20
2018-10-02T08:27:53.077Z,5.30
2018-10-02T08:30:22.869Z,5.30
2018-10-02T08:32:51.998Z,5.40
2018-10-02T08:35:21.501Z,5.40
2018-10-02T08:37:52.428Z,5.40
2018-10-02T08:40:23.566Z,5.50
2018-10-02T08:42:53.532Z,5.50
2018-10-02T08:45:26.212Z,5.50
2018-10-02T08:47:55.652Z,5.50
2018-10-02T08:50:25.154Z,5.50
2018-10-02T08:52:54.517Z,5.50
2018-10-02T08:55:25.085Z,5.50
2018-10-02T08:57:57.152Z,5.40
2018-10-02T09:00:27.219Z,5.40
2018-10-02T09:02:57.206Z,5.50
2018-10-02T09:05:26.641Z,5.40
2018-10-02T09:07:57.111Z,5.50
2018-10-02T09:10:26.205Z,5.50
2018-10-02T09:12:58.777Z,5.50
2018-10-02T09:15:28.286Z,5.50
2018-10-02T09:17:58.274Z,5.50
2018-10-02T09:20:27.743Z,5.50
2018-10-02T09:23:00.896Z,5.60
2018-10-02T09:25:30.702Z,5.50
2018-10-02T09:27:59.704Z,5.60
2018-10-02T09:30:35.936Z,5.60
2018-10-02T09:33:10.895Z,5.60
2018-10-02T09:35:45.154Z,5.60
2018-10-02T09:38:24.161Z,5.60
2018-10-02T09:40:58.706Z,5.70
2018-10-02T09:43:33.136Z,5.70
2018-10-02T09:46:04.781Z,5.70
2018-10-02T09:48:38.173Z,5.80
2018-10-02T09:51:08.214Z,5.70
2018-10-02T09:53:40.237Z,5.80
2018-10-02T09:56:10.175Z,5.70
2018-10-02T09:58:42.754Z,5.70
2018-10-02T10:01:16.959Z,5.70
2018-10-02T10:03:46.240Z,5.80
2018-10-02T10:06:18.422Z,5.80
2018-10-02T10:08:47.953Z,5.90
2018-10-02T10:11:17.411Z,5.80
2018-10-02T10:13:49.204Z,5.90
2018-10-02T10:16:19.258Z,5.90
2018-10-02T10:18:50.202Z,5.90
2018-10-02T10:21:19.708Z,6.00
2018-10-02T10:23:48.966Z,6.00
2018-10-02T10:26:18.700Z,6.00
2018-10-02T10:28:48.233Z,6.00
2018-10-02T10:31:19.242Z,6.00
2018-10-02T10:33:51.299Z,6.00
2018-10-02T10:36:20.280Z,6.00
2018-10-02T10:38:49.659Z,6.00
2018-10-02T10:41:19.175Z,6.10
2018-10-02T10:43:49.538Z,6.10
2018-10-02T10:46:20.123Z,6.10
2018-10-02T10:48:50.613Z,6.10
2018-10-02T10:51:20.265Z,6.20
2018-10-02T10:53:51.232Z,6.10
2018-10-02T10:56:20.567Z,6.10
2018-10-02T10:58:53.262Z,6.10
2018-10-02T11:01:22.278Z,6.10
2018-10-02T11:03:59.231Z,6.10
2018-10-02T11:06:28.664Z,6.20
2018-10-02T11:09:02.693Z,6.20
2018-10-02T11:11:32.288Z,6.20
2018-10-02T11:14:01.209Z,6.20
2018-10-02T11:16:33.530Z,6.10
2018-10-02T11:19:04.160Z,6.20
2018-10-02T11:21:33.828Z,6.10
2018-10-02T11:24:05.832Z,6.10
2018-10-02T11:26:40.158Z,6.20
2018-10-02T11:29:09.659Z,6.20
2018-10-02T11:31:40.168Z,6.20
2018-10-02T11:34:09.750Z,6.20
2018-10-02T11:36:39.981Z,6.30
2018-10-02T11:39:09.308Z,6.30
2018-10-02T11:41:40.408Z,6.30
2018-10-02T11:44:10.063Z,6.40
2018-10-02T11:46:39.715Z,6.40
2018-10-02T11:49:08.797Z,6.50
2018-10-02T11:51:38.806Z,6.50
2018-10-02T11:54:08.286Z,6.60
2018-10-02T11:56:37.567Z,6.50
2018-10-02T11:59:06.873Z,6.60
2018-10-02T12:01:35.736Z,6.60
2018-10-02T12:04:06.099Z,6.60
2018-10-02T12:06:40.180Z,6.60
2018-10-02T12:09:10.459Z,6.50
2018-10-02T12:11:42.157Z,6.50
2018-10-02T12:14:12.488Z,6.60
2018-10-02T12:16:43.402Z,6.60
2018-10-02T12:19:13.737Z,6.60
2018-10-02T12:21:46.189Z,6.60
2018-10-02T12:24:15.682Z,6.60
2018-10-02T12:26:48.786Z,6.60
2018-10-02T12:29:21.080Z,6.60
2018-10-02T12:31:50.188Z,6.60
2018-10-02T12:34:21.150Z,6.60
2018-10-02T12:36:50.842Z,6.70
2018-10-02T12:39:20.250Z,6.70
2018-10-02T12:41:50.986Z,6.70
2018-10-02T12:44:20.666Z,6.70
2018-10-02T12:46:54.191Z,6.70
2018-10-02T12:49:23.726Z,6.70
2018-10-02T12:51:52.993Z,6.80
2018-10-02T12:54:27.389Z,6.80
2018-10-02T12:56:59.886Z,6.80
2018-10-02T12:59:30.551Z,6.80
2018-10-02T13:02:01.458Z,6.80
2018-10-02T13:04:30.454Z,6.90
2018-10-02T13:07:01.654Z,6.90
2018-10-02T13:09:32.204Z,6.80
2018-10-02T13:12:03.175Z,6.80
2018-10-02T13:14:32.230Z,6.90
2018-10-02T13:17:03.391Z,6.90
2018-10-02T13:19:35.925Z,7.00
2018-10-02T13:22:06.559Z,7.00
2018-10-02T13:24:38.737Z,7.00
2018-10-02T13:27:09.357Z,7.00
2018-10-02T13:29:39.294Z,7.10
2018-10-02T13:32:09.713Z,7.10
2018-10-02T13:34:42.216Z,7.10
2018-10-02T13:37:12.800Z,7.10
2018-10-02T13:39:42.610Z,7.10
2018-10-02T13:42:12.167Z,7.10
2018-10-02T13:44:42.540Z,7.10
2018-10-02T13:47:14.273Z,7.10
2018-10-02T13:49:50.063Z,7.10
2018-10-02T13:52:23.606Z,7.10
2018-10-02T13:54:54.660Z,7.20
2018-10-02T14:00:11.670Z,7.20
2018-10-02T14:02:42.133Z,7.10
2018-10-02T14:05:11.878Z,7.10
2018-10-02T14:07:41.143Z,7.10
2018-10-02T14:10:10.192Z,7.20
2018-10-02T14:12:44.178Z,7.20
2018-10-02T14:15:15.239Z,7.20
2018-10-02T14:17:45.618Z,7.10
2018-10-02T14:20:18.567Z,7.20
2018-10-02T14:22:48.174Z,7.10
2018-10-02T14:25:18.685Z,7.20
2018-10-02T14:27:49.518Z,7.20
2018-10-02T14:30:20.163Z,7.20
2018-10-02T14:32:50.488Z,7.20
2018-10-02T14:35:27.257Z,7.30
2018-10-02T14:37:59.710Z,7.30
2018-10-02T14:40:34.173Z,7.30
2018-10-02T14:43:04.978Z,7.30
2018-10-02T14:46:58.950Z,7.30
2018-10-02T14:49:30.482Z,7.30
2018-10-02T14:52:01.156Z,7.20
2018-10-02T14:54:30.272Z,7.20
2018-10-02T14:56:59.229Z,7.20
2018-10-02T14:59:33.813Z,7.20
2018-10-02T15:02:03.131Z,7.20
2018-10-02T15:04:33.270Z,7.20
2018-10-02T15:07:05.171Z,7.30
2018-10-02T15:09:35.166Z,7.30
2018-10-02T15:12:04.580Z,7.20
2018-10-02T15:14:33.633Z,7.30
2018-10-02T15:17:04.907Z,7.30
2018-10-02T15:19:35.152Z,7.30
2018-10-02T15:22:06.122Z,7.30
2018-10-02T15:24:35.168Z,7.30
2018-10-02T15:27:04.676Z,7.30
2018-10-02T15:29:33.677Z,7.30
2018-10-02T15:32:10.644Z,7.30
2018-10-02T15:34:42.582Z,7.30
2018-10-02T15:37:12.366Z,7.30
2018-10-02T15:39:41.545Z,7.40
2018-10-02T15:42:11.579Z,7.40
2018-10-02T15:44:42.217Z,7.40
2018-10-02T15:47:13.721Z,7.40
2018-10-02T15:49:43.845Z,7.40
2018-10-02T15:52:14.210Z,7.40
2018-10-02T15:54:44.419Z,7.50
2018-10-02T15:57:14.183Z,7.50
2018-10-02T15:59:44.575Z,7.50
2018-10-02T16:02:15.538Z,7.50
2018-10-02T16:04:45.262Z,7.50
2018-10-02T16:07:19.087Z,7.50
2018-10-02T16:09:49.275Z,7.60
2018-10-02T16:12:20.661Z,7.60
2018-10-02T16:14:52.926Z,7.50
2018-10-02T16:17:26.261Z,7.60
2018-10-02T16:19:57.591Z,7.60
2018-10-02T16:22:27.669Z,7.60
2018-10-02T16:24:58.534Z,7.60
2018-10-02T16:27:29.163Z,7.60
2018-10-02T16:29:58.800Z,7.70
2018-10-02T16:32:29.149Z,7.70
2018-10-02T16:34:58.472Z,7.70
2018-10-02T16:37:31.161Z,7.70
2018-10-02T16:40:03.379Z,7.70
2018-10-02T16:42:33.333Z,7.80
2018-10-02T16:45:03.031Z,7.80
2018-10-02T16:47:33.575Z,7.80
2018-10-02T16:50:03.551Z,7.80
2018-10-02T16:52:34.355Z,7.90
2018-10-02T16:55:05.219Z,7.90
2018-10-02T16:57:35.937Z,7.90
2018-10-02T17:00:05.850Z,7.90
2018-10-02T17:02:41.817Z,7.90
2018-10-02T17:05:14.334Z,7.90
2018-10-02T17:07:45.165Z,7.90
2018-10-02T17:10:15.648Z,8.00
2018-10-02T17:12:45.621Z,8.00
2018-10-02T17:15:17.417Z,7.90
2018-10-02T17:17:52.189Z,8.00
2018-10-02T17:20:27.377Z,8.00
2018-10-02T17:22:58.337Z,8.00
2018-10-02T17:25:30.209Z,8.00
2018-10-02T17:28:08.599Z,8.00
2018-10-02T17:30:39.814Z,8.10
2018-10-02T17:33:10.065Z,8.10
2018-10-02T17:35:44.229Z,8.20
2018-10-02T17:38:13.674Z,8.20
2018-10-02T17:40:42.890Z,8.20
2018-10-02T17:43:14.178Z,8.20
2018-10-02T17:45:44.169Z,8.20
2018-10-02T17:48:15.691Z,8.20
2018-10-02T17:50:47.870Z,8.30
2018-10-02T17:53:20.317Z,8.30
2018-10-02T17:55:51.433Z,8.30
2018-10-02T17:58:23.734Z,8.40
2018-10-02T18:00:58.820Z,8.40
2018-10-02T18:03:28.748Z,8.30
2018-10-02T18:05:59.493Z,8.30
2018-10-02T18:08:30.177Z,8.40
2018-10-02T18:11:00.590Z,8.30
2018-10-02T18:13:32.094Z,8.40
2018-10-02T18:16:05.150Z,8.30
2018-10-02T18:18:36.071Z,8.30
2018-10-02T18:21:06.215Z,8.40
2018-10-02T18:23:37.350Z,8.50
2018-10-02T18:26:11.299Z,8.50
2018-10-02T18:28:44.279Z,8.40
2018-10-02T18:31:15.446Z,8.40
2018-10-02T18:33:45.394Z,8.50
2018-10-02T18:37:35.125Z,8.50
2018-10-02T18:40:05.239Z,8.50
2018-10-02T18:42:45.655Z,8.60
2018-10-02T18:45:16.402Z,8.60
2018-10-02T18:48:00.329Z,8.60
2018-10-02T18:50:33.233Z,8.70
2018-10-02T18:53:03.116Z,8.70
2018-10-02T18:55:37.884Z,8.70
2018-10-02T18:58:13.359Z,8.70
2018-10-02T19:00:44.615Z,8.70
2018-10-02T19:03:15.165Z,8.70
2018-10-02T19:05:56.303Z,8.70
2018-10-02T19:08:31.625Z,8.80
2018-10-02T19:11:07.294Z,8.80
2018-10-02T19:13:46.677Z,8.90
2018-10-02T19:22:12.199Z,8.80
2018-10-02T19:26:06.237Z,8.80
2018-10-02T19:28:38.322Z,8.80
2018-10-02T19:31:13.539Z,8.80
2018-10-02T19:33:43.582Z,8.70
2018-10-02T19:36:14.376Z,8.80
2018-10-02T19:38:50.100Z,8.80
2018-10-02T19:41:20.674Z,8.80
2018-10-02T19:43:51.439Z,8.90
2018-10-02T19:46:29.802Z,8.80
2018-10-02T19:49:04.187Z,8.90
2018-10-02T19:51:42.420Z,8.90
2018-10-02T19:54:20.548Z,8.90
2018-10-02T19:59:49.279Z,8.90
2018-10-02T20:02:22.590Z,8.90
2018-10-02T20:04:56.331Z,8.90
2018-10-02T20:07:30.005Z,8.90
2018-10-02T20:10:03.340Z,8.90
2018-10-02T20:12:34.178Z,8.90
2018-10-02T20:15:06.555Z,8.90
2018-10-02T20:17:38.147Z,8.90
2018-10-02T20:20:11.454Z,9.00
2018-10-02T20:22:46.414Z,9.00
2018-10-02T20:25:17.369Z,8.90
2018-10-02T20:27:47.081Z,8.90
2018-10-02T20:30:21.155Z,8.90
2018-10-02T20:32:55.575Z,8.90
2018-10-02T20:35:28.169Z,9.00
2018-10-02T20:37:58.583Z,9.00
2018-10-02T20:40:31.380Z,9.10
2018-10-02T20:43:03.819Z,9.20
2018-10-02T20:45:34.911Z,9.20
2018-10-02T20:48:05.729Z,9.20
2018-10-02T20:50:36.474Z,9.30
2018-10-02T20:53:12.475Z,9.30
2018-10-02T20:55:41.911Z,9.30
2018-10-02T20:58:14.336Z,9.30
2018-10-02T21:00:46.216Z,9.30
2018-10-02T21:03:15.370Z,9.40
2018-10-02T21:05:45.393Z,9.40
2018-10-02T21:08:22.368Z,9.40
2018-10-02T21:10:54.715Z,9.30
2018-10-02T21:13:26.038Z,9.30
2018-10-02T21:15:56.818Z,9.40
2018-10-02T21:18:29.752Z,9.30
2018-10-02T21:21:03.218Z,9.30
2018-10-02T21:23:33.520Z,9.40
2018-10-02T21:26:03.542Z,9.30
2018-10-02T21:28:32.595Z,9.40
2018-10-02T21:31:03.603Z,9.30
2018-10-02T21:33:36.371Z,9.30
2018-10-02T21:36:07.569Z,9.40
2018-10-02T21:38:40.228Z,9.50
2018-10-02T21:41:10.847Z,9.60
2018-10-02T21:43:40.838Z,9.50
2018-10-02T21:46:11.642Z,9.40
2018-10-02T21:48:44.157Z,9.40
2018-10-02T21:51:15.777Z,9.40
2018-10-02T21:53:45.130Z,9.40
2018-10-02T21:56:15.627Z,9.30
2018-10-02T21:58:50.203Z,9.30
2018-10-02T22:01:23.094Z,9.30
2018-10-02T22:03:52.531Z,9.30
2018-10-02T22:06:22.189Z,9.30
2018-10-02T22:08:52.776Z,9.40
2018-10-02T22:11:23.153Z,9.40
2018-10-02T22:13:53.717Z,9.40
2018-10-02T22:16:23.677Z,9.30
2018-10-02T22:18:53.652Z,9.30
2018-10-02T22:21:30.228Z,9.30
2018-10-02T22:24:00.790Z,9.30
2018-10-02T22:26:30.076Z,9.30
2018-10-02T22:29:00.231Z,9.30
2018-10-02T22:31:29.593Z,9.30
2018-10-02T22:34:00.908Z,9.40
2018-10-02T22:36:32.654Z,9.40
2018-10-02T22:39:02.289Z,9.30
2018-10-02T22:41:31.104Z,9.40
2018-10-02T22:44:00.660Z,9.30
2018-10-02T22:46:30.286Z,9.30
2018-10-02T22:48:59.457Z,9.30
2018-10-02T22:51:28.935Z,9.20
2018-10-02T22:53:58.684Z,9.30
2018-10-02T22:56:29.128Z,9.30
2018-10-02T22:58:58.444Z,9.30
2018-10-02T23:01:29.086Z,9.30
2018-10-02T23:04:00.131Z,9.30
2018-10-02T23:06:30.062Z,9.30
2018-10-02T23:08:59.081Z,9.30
2018-10-02T23:11:28.592Z,9.30
2018-10-02T23:13:58.684Z,9.30
2018-10-02T23:16:28.315Z,9.30
2018-10-02T23:18:58.671Z,9.30
2018-10-02T23:21:27.483Z,9.30
2018-10-02T23:23:56.411Z,9.30
2018-10-02T23:26:26.673Z,9.40
2018-10-02T23:28:56.165Z,9.30
2018-10-02T23:31:25.282Z,9.40
2018-10-02T23:33:54.170Z,9.40
2018-10-02T23:36:23.161Z,9.40
2018-10-02T23:38:52.064Z,9.40
2018-10-02T23:41:21.205Z,9.40
2018-10-02T23:43:50.312Z,9.40
2018-10-02T23:46:20.122Z,9.40
2018-10-02T23:48:49.655Z,9.40
2018-10-02T23:51:18.974Z,9.40
2018-10-02T23:53:51.258Z,9.40
2018-10-02T23:56:20.109Z,9.40
2018-10-02T23:58:49.174Z,9.40
